Time,TemperatureF,DewpointF,PressureIn,WindDirection,WindDirectionDegrees,WindSpeedMPH,WindSpeedGustMPH,Humidity,HourlyPrecipIn,Conditions,Clouds,dailyrainin,SolarRadiationWatts/m^2,SoftwareType,DateUTC
2013-07-16 00:00:00,72.2,68.8,30.28,NW,316,0.0,0.0,89,0.00,,---,0.00,0.00,VWS V14.01,2013-07-16 04:00:00,
2013-07-16 00:26:00,70.8,68.4,30.28,NW,316,0.0,0.0,92,0.00,,---,0.00,0.00,VWS V14.01,2013-07-16 04:26:00,
2013-07-16 00:30:00,71.6,68.5,30.27,NW,316,0.0,0.0,90,0.00,,---,0.00,0.00,VWS V14.01,2013-07-16 04:30:00,
2013-07-16 00:56:00,70.2,67.4,30.28,NW,316,0.0,0.0,91,0.00,,---,0.00,0.00,VWS V14.01,2013-07-16 04:56:00,
2013-07-16 01:00:00,71.2,68.8,30.28,NW,316,0.0,0.0,92,0.00,,---,0.00,0.00,VWS V14.01,2013-07-16 05:00:00,
2013-07-16 01:26:00,69.9,66.8,30.28,NW,316,0.0,0.0,90,0.00,,---,0.00,0.00,VWS V14.01,2013-07-16 05:26:00,
2013-07-16 01:30:00,70.8,68.4,30.28,NW,316,0.0,0.0,92,0.00,,---,0.00,0.00,VWS V14.01,2013-07-16 05:30:00,
2013-07-16 01:56:00,70.0,66.9,30.28,NW,316,0.0,0.0,90,0.00,,---,0.00,0.00,VWS V14.01,2013-07-16 05:56:00,
2013-07-16 02:00:00,70.2,67.4,30.28,NW,316,0.0,0.0,91,0.00,,---,0.00,0.00,VWS V14.01,2013-07-16 06:00:00,
2013-07-16 02:26:00,69.4,66.7,30.28,NW,316,0.0,0.0,91,0.00,,---,0.00,0.00,VWS V14.01,2013-07-16 06:26:00,
2013-07-16 02:30:00,69.9,66.8,30.28,NW,316,0.0,0.0,90,0.00,,---,0.00,0.00,VWS V14.01,2013-07-16 06:30:00,
2013-07-16 02:56:00,69.1,66.1,30.29,NW,316,0.0,0.0,90,0.00,,---,0.00,0.00,VWS V14.01,2013-07-16 06:56:00,
2013-07-16 03:00:00,70.0,66.9,30.28,NW,316,0.0,0.0,90,0.00,,---,0.00,0.00,VWS V14.01,2013-07-16 07:00:00,
2013-07-16 03:26:00,68.5,65.8,30.29,NW,316,0.0,1.0,91,0.00,,---,0.00,0.00,VWS V14.01,2013-07-16 07:26:00,
2013-07-16 03:30:00,69.4,66.7,30.28,NW,316,0.0,0.0,91,0.00,,---,0.00,0.00,VWS V14.01,2013-07-16 07:30:00,
2013-07-16 03:56:00,68.1,65.4,30.29,NW,316,0.0,0.0,91,0.00,,---,0.00,0.00,VWS V14.01,2013-07-16 07:56:00,
2013-07-16 04:00:00,69.1,66.1,30.29,NW,316,0.0,0.0,90,0.00,,---,0.00,0.00,VWS V14.01,2013-07-16 08:00:00,
2013-07-16 04:26:00,67.6,65.2,30.29,NW,316,0.0,0.0,92,0.00,,---,0.00,0.00,VWS V14.01,2013-07-16 08:26:00,
2013-07-16 04:30:00,68.5,65.8,30.29,NW,316,0.0,1.0,91,0.00,,---,0.00,0.00,VWS V14.01,2013-07-16 08:30:00,
2013-07-16 04:56:00,67.4,65.3,30.29,NW,316,0.0,0.0,93,0.00,,---,0.00,0.00,VWS V14.01,2013-07-16 08:56:00,
2013-07-16 05:00:00,68.1,65.4,30.29,NW,316,0.0,0.0,91,0.00,,---,0.00,0.00,VWS V14.01,2013-07-16 09:00:00,
2013-07-16 05:26:00,67.4,65.6,30.30,NW,316,0.0,0.0,94,0.00,,---,0.00,0.00,VWS V14.01,2013-07-16 09:26:00,
2013-07-16 05:30:00,67.6,65.2,30.29,NW,316,0.0,0.0,92,0.00,,---,0.00,0.00,VWS V14.01,2013-07-16 09:30:00,
2013-07-16 05:56:00,67.1,65.3,30.33,NW,316,0.0,0.0,94,0.00,,---,0.00,7.00,VWS V14.01,2013-07-16 09:56:00,
2013-07-16 06:00:00,67.4,65.3,30.29,NW,316,0.0,0.0,93,0.00,,---,0.00,0.00,VWS V14.01,2013-07-16 10:00:00,
2013-07-16 06:26:00,67.7,65.6,30.34,NW,316,0.0,0.0,93,0.00,,---,0.00,42.00,VWS V14.01,2013-07-16 10:26:00,
2013-07-16 06:30:00,67.4,65.6,30.30,NW,316,0.0,0.0,94,0.00,,---,0.00,0.00,VWS V14.01,2013-07-16 10:30:00,
2013-07-16 06:56:00,69.6,66.2,30.34,NW,316,0.0,1.0,89,0.00,,---,0.00,102.00,VWS V14.01,2013-07-16 10:56:00,
2013-07-16 07:00:00,67.1,65.3,30.33,NW,316,0.0,0.0,94,0.00,,---,0.00,7.00,VWS V14.01,2013-07-16 11:00:00,
2013-07-16 07:26:00,72.6,67.8,30.34,NW,316,0.0,1.0,85,0.00,,---,0.00,179.00,VWS V14.01,2013-07-16 11:26:00,
2013-07-16 07:30:00,67.7,65.6,30.34,NW,316,0.0,0.0,93,0.00,,---,0.00,42.00,VWS V14.01,2013-07-16 11:30:00,
2013-07-16 07:56:00,74.0,69.2,30.35,West,272,0.0,4.0,85,0.00,,---,0.00,260.00,VWS V14.01,2013-07-16 11:56:00,
2013-07-16 08:00:00,69.6,66.2,30.34,NW,316,0.0,1.0,89,0.00,,---,0.00,102.00,VWS V14.01,2013-07-16 12:00:00,
2013-07-16 08:26:00,76.6,70.7,30.34,SSW,213,3.0,4.0,82,0.00,,---,0.00,341.00,VWS V14.01,2013-07-16 12:26:00,
2013-07-16 08:30:00,72.6,67.8,30.34,NW,316,0.0,1.0,85,0.00,,---,0.00,179.00,VWS V14.01,2013-07-16 12:30:00,
2013-07-16 08:56:00,79.4,71.2,30.34,West,267,2.0,6.0,76,0.00,,---,0.00,422.00,VWS V14.01,2013-07-16 12:56:00,
2013-07-16 09:00:00,74.0,69.2,30.35,West,272,0.0,4.0,85,0.00,,---,0.00,260.00,VWS V14.01,2013-07-16 13:00:00,
2013-07-16 09:26:00,80.9,70.6,30.34,WNW,297,0.0,8.0,71,0.00,,---,0.00,499.00,VWS V14.01,2013-07-16 13:26:00,
2013-07-16 09:30:00,76.6,70.7,30.34,SSW,213,3.0,4.0,82,0.00,,---,0.00,341.00,VWS V14.01,2013-07-16 13:30:00,
2013-07-16 09:56:00,82.2,70.6,30.34,NW,311,0.0,6.0,68,0.00,,---,0.00,575.00,VWS V14.01,2013-07-16 13:56:00,
2013-07-16 10:00:00,79.4,71.2,30.34,West,267,2.0,6.0,76,0.00,,---,0.00,422.00,VWS V14.01,2013-07-16 14:00:00,
2013-07-16 10:26:00,82.8,70.3,30.33,NW,310,0.0,5.0,66,0.00,,---,0.00,638.00,VWS V14.01,2013-07-16 14:26:00,
2013-07-16 10:30:00,80.9,70.6,30.34,WNW,297,0.0,8.0,71,0.00,,---,0.00,499.00,VWS V14.01,2013-07-16 14:30:00,
2013-07-16 10:56:00,85.5,71.0,30.33,WNW,289,0.0,6.0,62,0.00,,---,0.00,705.00,VWS V14.01,2013-07-16 14:56:00,
2013-07-16 11:00:00,82.2,70.6,30.34,NW,311,0.0,6.0,68,0.00,,---,0.00,575.00,VWS V14.01,2013-07-16 15:00:00,
2013-07-16 11:26:00,86.6,69.1,30.33,NNW,330,0.0,6.0,56,0.00,,---,0.00,751.00,VWS V14.01,2013-07-16 15:26:00,
2013-07-16 11:30:00,82.8,70.3,30.33,NW,310,0.0,5.0,66,0.00,,---,0.00,638.00,VWS V14.01,2013-07-16 15:30:00,
2013-07-16 11:56:00,87.8,69.6,30.33,WNW,303,0.0,6.0,55,0.00,,---,0.00,791.00,VWS V14.01,2013-07-16 15:56:00,
2013-07-16 12:00:00,85.5,71.0,30.33,WNW,289,0.0,6.0,62,0.00,,---,0.00,705.00,VWS V14.01,2013-07-16 16:00:00,
2013-07-16 12:26:00,86.8,69.2,30.33,NNW,345,0.0,7.0,56,0.00,,---,0.00,817.00,VWS V14.01,2013-07-16 16:26:00,
2013-07-16 12:30:00,86.6,69.1,30.33,NNW,330,0.0,6.0,56,0.00,,---,0.00,751.00,VWS V14.01,2013-07-16 16:30:00,
2013-07-16 12:56:00,88.9,69.0,30.32,WNW,297,0.0,7.0,52,0.00,,---,0.00,837.00,VWS V14.01,2013-07-16 16:56:00,
2013-07-16 13:00:00,87.8,69.6,30.33,WNW,303,0.0,6.0,55,0.00,,---,0.00,791.00,VWS V14.01,2013-07-16 17:00:00,
2013-07-16 13:26:00,87.9,65.8,30.31,NNW,329,3.0,8.0,48,0.00,,---,0.00,838.00,VWS V14.01,2013-07-16 17:26:00,
2013-07-16 13:30:00,86.8,69.2,30.33,NNW,345,0.0,7.0,56,0.00,,---,0.00,817.00,VWS V14.01,2013-07-16 17:30:00,
2013-07-16 14:00:00,88.9,69.0,30.32,WNW,297,0.0,7.0,52,0.00,,---,0.00,837.00,VWS V14.01,2013-07-16 18:00:00,
2013-07-16 14:30:00,87.9,65.8,30.31,NNW,329,3.0,8.0,48,0.00,,---,0.00,838.00,VWS V14.01,2013-07-16 18:30:00,
2013-07-16 15:00:00,88.3,67.9,30.30,NNW,331,1.0,8.0,51,0.00,,---,0.00,828.00,VWS V14.01,2013-07-16 19:00:00,
2013-07-16 15:26:00,88.5,69.8,30.28,NW,325,9.0,9.0,54,0.00,,---,0.00,731.00,VWS V14.01,2013-07-16 19:26:00,
2013-07-16 15:30:00,87.7,69.0,30.30,NW,321,1.0,9.0,54,0.00,,---,0.00,803.00,VWS V14.01,2013-07-16 19:30:00,
2013-07-16 15:56:00,88.9,69.6,30.28,NW,325,3.0,9.0,53,0.00,,---,0.00,668.00,VWS V14.01,2013-07-16 19:56:00,
2013-07-16 16:00:00,88.1,68.8,30.29,NNW,344,1.0,8.0,53,0.00,,---,0.00,779.00,VWS V14.01,2013-07-16 20:00:00,
2013-07-16 16:26:00,88.5,69.8,30.27,NNW,346,2.0,8.0,54,0.00,,---,0.00,610.00,VWS V14.01,2013-07-16 20:26:00,
2013-07-16 16:30:00,88.5,69.8,30.28,NW,325,9.0,9.0,54,0.00,,---,0.00,731.00,VWS V14.01,2013-07-16 20:30:00,
2013-07-16 16:56:00,87.6,69.4,30.25,NNW,341,6.0,11.0,55,0.00,,---,0.00,536.00,VWS V14.01,2013-07-16 20:56:00,
2013-07-16 17:00:00,88.9,69.6,30.28,NW,325,3.0,9.0,53,0.00,,---,0.00,668.00,VWS V14.01,2013-07-16 21:00:00,
2013-07-16 17:26:00,87.2,69.1,30.25,NNW,346,2.0,9.0,55,0.00,,---,0.00,457.00,VWS V14.01,2013-07-16 21:26:00,
2013-07-16 17:30:00,88.5,69.8,30.27,NNW,346,2.0,8.0,54,0.00,,---,0.00,610.00,VWS V14.01,2013-07-16 21:30:00,
2013-07-16 17:56:00,86.9,68.3,30.25,NNW,336,0.0,8.0,54,0.00,,---,0.00,383.00,VWS V14.01,2013-07-16 21:56:00,
2013-07-16 18:00:00,87.6,69.4,30.25,NNW,341,6.0,11.0,55,0.00,,---,0.00,536.00,VWS V14.01,2013-07-16 22:00:00,
2013-07-16 18:26:00,87.0,68.9,30.24,NNW,327,3.0,8.0,55,0.00,,---,0.00,306.00,VWS V14.01,2013-07-16 22:26:00,
2013-07-16 18:30:00,87.2,69.1,30.25,NNW,346,2.0,9.0,55,0.00,,---,0.00,457.00,VWS V14.01,2013-07-16 22:30:00,
2013-07-16 18:56:00,86.6,67.4,30.24,North,360,0.0,6.0,53,0.00,,---,0.00,218.00,VWS V14.01,2013-07-16 22:56:00,
2013-07-16 19:00:00,86.9,68.3,30.25,NNW,336,0.0,8.0,54,0.00,,---,0.00,383.00,VWS V14.01,2013-07-16 23:00:00,
2013-07-16 19:26:00,86.3,66.6,30.24,WNW,296,0.0,5.0,52,0.00,,---,0.00,128.00,VWS V14.01,2013-07-16 23:26:00,
2013-07-16 19:30:00,87.0,68.9,30.24,NNW,327,3.0,8.0,55,0.00,,---,0.00,306.00,VWS V14.01,2013-07-16 23:30:00,
2013-07-16 19:56:00,86.5,67.3,30.24,WNW,296,0.0,1.0,53,0.00,,---,0.00,53.00,VWS V14.01,2013-07-16 23:56:00,
2013-07-16 20:00:00,86.6,67.4,30.24,North,360,0.0,6.0,53,0.00,,---,0.00,218.00,VWS V14.01,2013-07-17 00:00:00,
2013-07-16 20:26:00,83.0,70.9,30.24,WNW,296,0.0,1.0,67,0.00,,---,0.00,12.00,VWS V14.01,2013-07-17 00:26:00,
2013-07-16 20:30:00,86.3,66.6,30.24,WNW,296,0.0,5.0,52,0.00,,---,0.00,128.00,VWS V14.01,2013-07-17 00:30:00,
2013-07-16 20:56:00,78.5,69.9,30.25,WNW,296,0.0,1.0,75,0.00,,---,0.00,0.00,VWS V14.01,2013-07-17 00:56:00,
2013-07-16 21:00:00,86.5,67.4,30.24,WNW,296,0.0,1.0,53,0.00,,---,0.00,53.00,VWS V14.01,2013-07-17 01:00:00,
2013-07-16 21:26:00,76.0,69.4,30.25,WNW,296,0.0,1.0,80,0.00,,---,0.00,0.00,VWS V14.01,2013-07-17 01:26:00,
2013-07-16 21:30:00,83.0,70.9,30.24,WNW,296,0.0,1.0,67,0.00,,---,0.00,12.00,VWS V14.01,2013-07-17 01:30:00,
2013-07-16 21:56:00,74.0,68.9,30.26,WNW,296,0.0,0.0,84,0.00,,---,0.00,0.00,VWS V14.01,2013-07-17 01:56:00,
2013-07-16 22:00:00,78.5,69.9,30.25,WNW,296,0.0,1.0,75,0.00,,---,0.00,0.00,VWS V14.01,2013-07-17 02:00:00,
2013-07-16 22:26:00,73.4,69.0,30.25,WNW,296,0.0,1.0,86,0.00,,---,0.00,0.00,VWS V14.01,2013-07-17 02:26:00,
2013-07-16 22:30:00,76.0,69.4,30.25,WNW,296,0.0,1.0,80,0.00,,---,0.00,0.00,VWS V14.01,2013-07-17 02:30:00,
2013-07-16 22:56:00,72.6,68.8,30.25,WNW,296,0.0,0.0,88,0.00,,---,0.00,0.00,VWS V14.01,2013-07-17 02:56:00,
2013-07-16 23:00:00,74.0,68.9,30.26,WNW,296,0.0,0.0,84,0.00,,---,0.00,0.00,VWS V14.01,2013-07-17 03:00:00,
2013-07-16 23:26:00,72.4,69.0,30.25,WNW,296,0.0,1.0,89,0.00,,---,0.00,0.00,VWS V14.01,2013-07-17 03:26:00,
2013-07-16 23:30:00,73.4,69.0,30.25,WNW,296,0.0,1.0,86,0.00,,---,0.00,0.00,VWS V14.01,2013-07-17 03:30:00,
2013-07-16 23:56:00,71.9,68.8,30.25,WNW,296,0.0,0.0,90,0.00,,---,0.00,0.00,VWS V14.01,2013-07-17 03:56:00,